Bol'shoy Kamen', Russia
Current Conditions -  °F | °C
As of 1:00 PM on Thursday 27 Nov 2014 (Local Time) from UHWW Reporting Station
Broken Clouds Broken Clouds  
Wind Chill: 43°   Ceiling: 1500
Heat Index: 43°   Visibility: 6mi
Dew Point: 30°   Wind: 2mph
Humidity: 61%   Direction: NA
Pressure: 30.18"   Gusts: NA
Location:  43.13°N, 132.47°E
Report Text: UHWW 270300Z VRB01MPS 9999 BKN015 BKN100 06/M01 Q1022 NOSIG RMKQFE765/1021 25CLRD70
Loading
Personal Weather Stations






























Interactive Weather Map New forecast layout! Learn more

10-Day Weather Forecast

Advertisements
Track Severe Weather on mobile